createdAt,value
2018-04-08T00:00:56.450Z,10.57
2018-04-08T00:03:23.123Z,8.70
2018-04-08T00:05:49.863Z,12.80
2018-04-08T00:08:16.557Z,9.93
2018-04-08T00:10:43.257Z,9.27
2018-04-08T00:13:09.969Z,8.73
2018-04-08T00:15:36.671Z,5.93
2018-04-08T00:18:03.372Z,8.33
2018-04-08T00:20:30.040Z,9.60
2018-04-08T00:22:56.707Z,11.80
2018-04-08T00:25:23.434Z,8.43
2018-04-08T00:27:50.135Z,9.03
2018-04-08T00:30:16.841Z,8.73
2018-04-08T00:32:43.547Z,9.97
2018-04-08T00:35:10.198Z,10.13
2018-04-08T00:37:36.896Z,10.17
2018-04-08T00:40:03.549Z,8.20
2018-04-08T00:42:30.311Z,9.57
2018-04-08T00:44:56.973Z,9.23
2018-04-08T00:47:23.659Z,9.37
2018-04-08T00:49:50.366Z,7.03
2018-04-08T00:52:17.044Z,10.93
2018-04-08T00:54:43.765Z,8.60
2018-04-08T00:57:10.442Z,9.27
2018-04-08T00:59:37.089Z,8.80
2018-04-08T01:02:03.807Z,8.83
2018-04-08T01:04:30.480Z,11.17
2018-04-08T01:06:57.208Z,8.73
2018-04-08T01:09:23.968Z,10.83
2018-04-08T01:11:50.678Z,10.43
2018-04-08T01:14:17.411Z,9.10
2018-04-08T01:16:44.139Z,8.03
2018-04-08T01:19:10.805Z,9.43
2018-04-08T01:21:37.544Z,8.37
2018-04-08T01:24:04.240Z,10.37
2018-04-08T01:26:30.962Z,10.27
2018-04-08T01:28:57.662Z,9.13
2018-04-08T01:31:24.502Z,9.10
2018-04-08T01:33:51.194Z,10.73
2018-04-08T01:36:18.187Z,8.37
2018-04-08T01:38:44.894Z,12.80
2018-04-08T01:41:11.625Z,12.20
2018-04-08T01:43:38.333Z,12.67
2018-04-08T01:46:05.246Z,11.47
2018-04-08T01:48:31.980Z,9.93
2018-04-08T01:50:58.707Z,8.97
2018-04-08T01:53:25.422Z,12.30
2018-04-08T01:55:52.117Z,14.10
2018-04-08T01:58:18.791Z,10.93
2018-04-08T02:00:45.504Z,14.17
2018-04-08T02:03:12.182Z,11.57
2018-04-08T02:05:38.868Z,10.17
2018-04-08T02:08:05.569Z,9.70
2018-04-08T02:10:32.469Z,10.17
2018-04-08T02:12:59.171Z,11.73
2018-04-08T02:15:25.857Z,9.97
2018-04-08T02:17:52.590Z,11.63
2018-04-08T02:20:19.276Z,10.03
2018-04-08T02:22:46.021Z,10.20
2018-04-08T02:25:12.735Z,10.60
2018-04-08T02:27:39.437Z,10.87
2018-04-08T02:30:06.230Z,11.67
2018-04-08T02:32:32.896Z,15.20
2018-04-08T02:34:59.621Z,10.97
2018-04-08T02:37:26.285Z,11.20
2018-04-08T02:39:53.008Z,13.97
2018-04-08T02:42:19.680Z,15.47
2018-04-08T02:44:46.386Z,10.77
2018-04-08T02:47:13.113Z,11.90
2018-04-08T02:49:39.828Z,11.33
2018-04-08T02:52:06.544Z,12.47
2018-04-08T02:54:33.238Z,10.90
2018-04-08T02:57:00.044Z,11.97
2018-04-08T02:59:26.720Z,12.57
2018-04-08T03:01:53.460Z,11.60
2018-04-08T03:04:20.186Z,12.73
2018-04-08T03:06:46.903Z,13.33
2018-04-08T03:09:13.615Z,13.50
2018-04-08T03:11:40.319Z,10.83
2018-04-08T03:14:07.007Z,12.83
2018-04-08T03:16:33.716Z,12.10
2018-04-08T03:19:00.464Z,13.30
2018-04-08T03:21:27.154Z,12.60
2018-04-08T03:23:54.522Z,15.77
2018-04-08T03:26:21.283Z,8.67
2018-04-08T03:28:48.314Z,15.53
2018-04-08T03:31:15.039Z,11.07
2018-04-08T03:33:41.736Z,12.90
2018-04-08T03:36:08.458Z,12.23
2018-04-08T03:38:35.324Z,10.90
2018-04-08T03:41:01.991Z,10.90
2018-04-08T03:43:28.688Z,10.10
2018-04-08T03:45:55.426Z,14.67
2018-04-08T03:48:22.106Z,13.27
2018-04-08T03:50:48.817Z,9.83
2018-04-08T03:53:15.520Z,12.83
2018-04-08T03:55:42.226Z,10.27
2018-04-08T03:58:08.920Z,14.00
2018-04-08T04:00:35.641Z,11.47
2018-04-08T04:03:02.395Z,12.17
2018-04-08T04:05:29.089Z,9.67
2018-04-08T04:07:55.781Z,14.63
2018-04-08T04:10:22.521Z,12.97
2018-04-08T04:12:49.250Z,15.20
2018-04-08T04:15:15.969Z,13.80
2018-04-08T04:17:42.690Z,11.60
2018-04-08T04:20:15.498Z,11.87
2018-04-08T04:22:48.014Z,10.17
2018-04-08T04:25:20.814Z,13.07
2018-04-08T04:27:47.515Z,11.00
2018-04-08T04:30:14.213Z,14.80
2018-04-08T04:32:40.951Z,13.07
2018-04-08T04:35:07.638Z,14.20
2018-04-08T04:37:34.351Z,14.73
2018-04-08T04:40:01.069Z,12.10
2018-04-08T04:42:27.795Z,12.20
2018-04-08T04:44:54.487Z,13.87
2018-04-08T04:47:21.205Z,10.10
2018-04-08T04:49:47.893Z,12.57
2018-04-08T04:52:14.609Z,13.37
2018-04-08T04:54:41.302Z,12.03
2018-04-08T04:57:08.083Z,11.50
2018-04-08T04:59:34.780Z,11.87
2018-04-08T05:02:01.585Z,12.50
2018-04-08T05:04:28.258Z,12.53
2018-04-08T05:06:55.015Z,10.53
2018-04-08T05:09:21.743Z,11.97
2018-04-08T05:11:48.457Z,11.13
2018-04-08T05:14:15.179Z,9.67
2018-04-08T05:16:41.893Z,11.40
2018-04-08T05:19:08.570Z,12.30
2018-04-08T05:21:35.265Z,14.53
2018-04-08T05:24:01.965Z,13.20
2018-04-08T05:26:28.793Z,13.80
2018-04-08T05:28:55.507Z,12.87
2018-04-08T05:31:22.253Z,11.20
2018-04-08T05:33:48.978Z,11.53
2018-04-08T05:36:15.665Z,10.80
2018-04-08T05:38:42.332Z,14.50
2018-04-08T05:41:09.057Z,10.23
2018-04-08T05:43:35.754Z,10.23
2018-04-08T05:46:02.435Z,10.97
2018-04-08T05:48:29.149Z,11.83
2018-04-08T05:50:55.895Z,13.27
2018-04-08T05:53:22.610Z,11.63
2018-04-08T05:55:49.335Z,11.30
2018-04-08T05:58:16.033Z,14.43
2018-04-08T06:00:42.737Z,12.20
2018-04-08T06:03:09.418Z,11.73
2018-04-08T06:05:36.128Z,12.07
2018-04-08T06:08:02.820Z,11.50
2018-04-08T06:10:29.550Z,9.20
2018-04-08T06:12:56.342Z,10.40
2018-04-08T06:15:23.070Z,10.33
2018-04-08T06:17:49.804Z,12.50
2018-04-08T06:20:16.516Z,13.03
2018-04-08T06:22:43.201Z,13.70
2018-04-08T06:25:09.919Z,15.33
2018-04-08T06:27:36.659Z,11.23
2018-04-08T06:30:03.420Z,15.80
2018-04-08T06:32:30.233Z,11.80
2018-04-08T06:34:56.912Z,13.43
2018-04-08T06:37:23.602Z,12.10
2018-04-08T06:39:50.296Z,10.50
2018-04-08T06:42:17.038Z,12.23
2018-04-08T06:44:43.706Z,9.13
2018-04-08T06:47:10.406Z,10.70
2018-04-08T06:49:37.125Z,11.40
2018-04-08T06:52:03.808Z,12.27
2018-04-08T06:54:30.567Z,12.77
2018-04-08T06:56:57.281Z,7.73
2018-04-08T06:59:23.982Z,12.03
2018-04-08T07:01:50.722Z,10.00
2018-04-08T07:04:17.450Z,10.40
2018-04-08T07:06:44.167Z,10.70
2018-04-08T07:09:11.598Z,11.53
2018-04-08T07:11:38.335Z,10.20
2018-04-08T07:14:05.025Z,11.07
2018-04-08T07:16:31.712Z,8.13
2018-04-08T07:18:58.438Z,9.83
2018-04-08T07:21:25.167Z,10.40
2018-04-08T07:23:51.938Z,12.67
2018-04-08T07:26:18.672Z,10.27
2018-04-08T07:28:45.440Z,9.40
2018-04-08T07:31:12.194Z,9.00
2018-04-08T07:33:38.958Z,9.10
2018-04-08T07:36:05.650Z,7.70
2018-04-08T07:38:32.377Z,9.23
2018-04-08T07:40:59.074Z,11.50
2018-04-08T07:43:25.859Z,8.77
2018-04-08T07:45:52.589Z,8.80
2018-04-08T07:48:19.336Z,11.37
2018-04-08T07:50:46.038Z,10.40
2018-04-08T07:53:12.753Z,9.10
2018-04-08T07:55:39.497Z,10.77
2018-04-08T07:58:06.177Z,11.07
2018-04-08T08:00:32.901Z,9.57
2018-04-08T08:02:59.760Z,10.50
2018-04-08T08:05:26.455Z,8.23
2018-04-08T08:07:53.175Z,8.53
2018-04-08T08:10:19.883Z,8.60
2018-04-08T08:12:46.603Z,8.30
2018-04-08T08:15:13.365Z,9.20
2018-04-08T08:17:40.063Z,11.93
2018-04-08T08:20:06.807Z,8.67
2018-04-08T08:22:33.504Z,9.83
2018-04-08T08:25:00.214Z,8.77
2018-04-08T08:27:26.930Z,8.57
2018-04-08T08:29:53.618Z,8.80
2018-04-08T08:32:20.336Z,7.40
2018-04-08T08:34:47.101Z,12.33
2018-04-08T08:37:13.880Z,7.57
2018-04-08T08:39:40.647Z,8.50
2018-04-08T08:42:07.344Z,8.53
2018-04-08T08:44:34.069Z,11.53
2018-04-08T08:47:00.786Z,10.17
2018-04-08T08:49:27.527Z,9.30
2018-04-08T08:51:54.198Z,10.20
2018-04-08T08:54:20.921Z,10.20
2018-04-08T08:56:47.655Z,8.67
2018-04-08T08:59:14.818Z,9.43
2018-04-08T09:01:41.517Z,10.30
2018-04-08T09:04:08.206Z,11.87
2018-04-08T09:06:34.971Z,9.40
2018-04-08T09:09:01.658Z,9.73
2018-04-08T09:11:28.402Z,8.00
2018-04-08T09:13:55.077Z,9.13
2018-04-08T09:16:21.780Z,10.13
2018-04-08T09:18:51.117Z,10.20
2018-04-08T09:21:24.515Z,7.63
2018-04-08T09:23:59.919Z,8.67
2018-04-08T09:26:27.420Z,9.77
2018-04-08T09:28:54.132Z,10.13
2018-04-08T09:31:20.859Z,8.13
2018-04-08T09:33:47.559Z,8.40
2018-04-08T09:36:14.276Z,8.53
2018-04-08T09:38:40.936Z,7.43
2018-04-08T09:41:07.645Z,8.17
2018-04-08T09:43:34.618Z,9.07
2018-04-08T09:46:01.289Z,10.37
2018-04-08T09:48:27.942Z,7.67
2018-04-08T09:50:54.667Z,9.13
2018-04-08T09:53:21.353Z,9.63
2018-04-08T09:55:48.085Z,8.00
2018-04-08T09:58:15.371Z,8.70
2018-04-08T10:00:57.026Z,10.60
2018-04-08T10:03:26.617Z,7.13
2018-04-08T10:05:53.294Z,9.93
2018-04-08T10:08:20.063Z,8.97
2018-04-08T10:10:46.733Z,9.17
2018-04-08T10:13:13.426Z,10.50
2018-04-08T10:15:40.098Z,9.67
2018-04-08T10:18:06.805Z,9.30
2018-04-08T10:20:33.566Z,12.30
2018-04-08T10:23:00.279Z,10.00
2018-04-08T10:25:26.955Z,8.17
2018-04-08T10:27:53.696Z,8.80
2018-04-08T10:30:20.353Z,8.70
2018-04-08T10:32:47.085Z,8.30
2018-04-08T10:35:13.772Z,10.23
2018-04-08T10:37:40.474Z,8.00
2018-04-08T10:40:07.182Z,8.07
2018-04-08T10:42:33.845Z,8.03
2018-04-08T10:45:00.553Z,8.73
2018-04-08T10:47:27.963Z,8.03
2018-04-08T10:49:54.694Z,9.73
2018-04-08T10:52:22.127Z,10.03
2018-04-08T10:54:48.819Z,7.60
2018-04-08T10:57:15.525Z,13.03
2018-04-08T10:59:42.224Z,9.07
2018-04-08T11:02:08.938Z,9.63
2018-04-08T11:04:35.596Z,9.83
2018-04-08T11:07:02.270Z,7.60
2018-04-08T11:09:28.985Z,8.53
2018-04-08T11:11:55.740Z,7.83
2018-04-08T11:14:22.436Z,6.90
2018-04-08T11:16:49.106Z,10.90
2018-04-08T11:19:15.767Z,8.63
2018-04-08T11:21:42.478Z,8.90
2018-04-08T11:24:09.140Z,6.63
2018-04-08T11:26:35.852Z,7.20
2018-04-08T11:29:02.601Z,8.23
2018-04-08T11:31:29.296Z,6.57
2018-04-08T11:33:55.975Z,9.70
2018-04-08T11:36:22.665Z,10.07
2018-04-08T11:38:49.409Z,7.90
2018-04-08T11:41:16.124Z,7.93
2018-04-08T11:43:42.792Z,6.87
2018-04-08T11:46:09.772Z,8.07
2018-04-08T11:48:36.432Z,9.57
2018-04-08T11:51:03.115Z,7.90
2018-04-08T11:53:29.839Z,9.13
2018-04-08T11:55:56.517Z,6.37
2018-04-08T11:58:23.413Z,7.10
2018-04-08T12:00:50.103Z,7.53
2018-04-08T12:03:16.819Z,6.30
2018-04-08T12:05:43.517Z,7.50
2018-04-08T12:08:10.168Z,9.63
2018-04-08T12:10:36.889Z,6.17
2018-04-08T12:13:03.549Z,9.17
2018-04-08T12:15:30.236Z,9.57
2018-04-08T12:17:56.930Z,8.00
2018-04-08T12:20:23.640Z,8.60
2018-04-08T12:22:50.410Z,7.00
2018-04-08T12:25:17.112Z,9.40
2018-04-08T12:27:43.797Z,5.87
2018-04-08T12:30:10.550Z,6.90
2018-04-08T12:32:37.213Z,7.60
2018-04-08T12:35:03.908Z,9.27
2018-04-08T12:37:30.611Z,7.57
2018-04-08T12:39:57.301Z,7.65
2018-04-08T12:42:24.004Z,8.20
2018-04-08T12:44:50.854Z,8.10
2018-04-08T12:47:17.564Z,7.20
2018-04-08T12:49:44.238Z,9.67
2018-04-08T12:52:10.924Z,7.70
2018-04-08T12:54:37.611Z,7.20
2018-04-08T12:57:04.335Z,8.57
2018-04-08T12:59:31.010Z,6.20
2018-04-08T13:01:57.770Z,6.90
2018-04-08T13:04:24.437Z,4.80
2018-04-08T13:06:51.119Z,5.93
2018-04-08T13:09:17.812Z,6.87
2018-04-08T13:11:44.588Z,6.15
2018-04-08T13:14:11.266Z,7.18
2018-04-08T13:16:37.951Z,7.55
2018-04-08T13:19:04.661Z,7.28
2018-04-08T13:21:32.322Z,7.03
2018-04-08T13:23:59.018Z,8.55
2018-04-08T13:26:25.720Z,8.73
2018-04-08T13:28:52.393Z,7.60
2018-04-08T13:31:19.116Z,6.82
2018-04-08T13:33:45.796Z,6.22
2018-04-08T13:36:12.459Z,7.85
2018-04-08T13:38:39.307Z,7.07
2018-04-08T13:41:06.028Z,6.85
2018-04-08T13:43:32.751Z,7.18
2018-04-08T13:45:59.421Z,7.62
2018-04-08T13:48:26.144Z,8.68
2018-04-08T13:50:52.854Z,9.65
2018-04-08T13:53:19.568Z,7.45
2018-04-08T13:55:46.261Z,6.57
2018-04-08T13:58:12.928Z,6.15
2018-04-08T14:00:39.834Z,8.07
2018-04-08T14:03:06.542Z,7.68
2018-04-08T14:05:33.268Z,6.72
2018-04-08T14:07:59.988Z,8.30
2018-04-08T14:10:26.708Z,6.82
2018-04-08T14:12:53.403Z,5.55
2018-04-08T14:15:20.080Z,6.97
2018-04-08T14:17:46.762Z,6.00
2018-04-08T14:20:13.472Z,6.72
2018-04-08T14:22:40.128Z,6.05
2018-04-08T14:25:06.818Z,5.97
2018-04-08T14:27:33.530Z,5.68
2018-04-08T14:30:00.224Z,5.85
2018-04-08T14:32:26.937Z,6.95
2018-04-08T14:34:53.615Z,6.40
2018-04-08T14:37:20.326Z,5.97
2018-04-08T14:39:46.995Z,5.57
2018-04-08T14:42:13.714Z,6.82
2018-04-08T14:44:40.555Z,6.05
2018-04-08T14:47:07.229Z,7.62
2018-04-08T14:49:33.939Z,7.82
2018-04-08T14:52:00.744Z,4.35
2018-04-08T14:54:27.437Z,8.50
2018-04-08T14:56:54.151Z,6.12
2018-04-08T14:59:20.881Z,7.82
2018-04-08T15:01:47.622Z,6.68
2018-04-08T15:04:14.322Z,7.75
2018-04-08T15:06:41.180Z,11.00
2018-04-08T15:09:07.876Z,8.23
2018-04-08T15:11:34.596Z,7.70
2018-04-08T15:14:01.259Z,6.55
2018-04-08T15:16:27.951Z,6.65
2018-04-08T15:18:54.644Z,5.20
2018-04-08T15:21:21.401Z,6.78
2018-04-08T15:23:48.114Z,5.95
2018-04-08T15:26:15.005Z,7.03
2018-04-08T15:28:41.736Z,5.68
2018-04-08T15:31:08.462Z,8.32
2018-04-08T15:33:35.157Z,7.18
2018-04-08T15:36:01.838Z,5.40
2018-04-08T15:38:28.566Z,5.30
2018-04-08T15:40:55.265Z,6.40
2018-04-08T15:43:21.972Z,6.68
2018-04-08T15:45:48.701Z,5.07
2018-04-08T15:48:15.439Z,5.82
2018-04-08T15:50:42.187Z,5.47
2018-04-08T15:53:08.901Z,5.50
2018-04-08T15:55:35.623Z,4.93
2018-04-08T15:58:02.330Z,6.20
2018-04-08T16:00:29.068Z,6.43
2018-04-08T16:02:55.764Z,7.60
2018-04-08T16:05:22.543Z,5.65
2018-04-08T16:07:49.263Z,5.60
2018-04-08T16:10:15.932Z,6.45
2018-04-08T16:12:42.623Z,6.97
2018-04-08T16:15:09.479Z,5.40
2018-04-08T16:17:36.183Z,5.45
2018-04-08T16:20:02.913Z,5.95
2018-04-08T16:22:29.628Z,7.03
2018-04-08T16:24:56.337Z,4.85
2018-04-08T16:27:23.059Z,5.28
2018-04-08T16:29:49.743Z,5.53
2018-04-08T16:32:16.395Z,5.93
2018-04-08T16:34:43.121Z,7.65
2018-04-08T16:37:09.853Z,7.57
2018-04-08T16:39:47.793Z,7.40
2018-04-08T16:42:14.471Z,5.93
2018-04-08T16:44:41.180Z,6.40
2018-04-08T16:47:07.990Z,6.05
2018-04-08T16:52:10.782Z,6.43
2018-04-08T16:54:37.479Z,4.90
2018-04-08T16:57:04.199Z,5.03
2018-04-08T16:59:30.878Z,9.38
2018-04-08T17:01:58.451Z,4.50
2018-04-08T17:04:25.191Z,5.95
2018-04-08T17:06:51.834Z,5.70
2018-04-08T17:09:18.545Z,4.62
2018-04-08T17:11:45.235Z,5.93
2018-04-08T17:14:11.906Z,6.55
2018-04-08T17:16:38.632Z,7.72
2018-04-08T17:19:05.325Z,6.43
2018-04-08T17:21:31.994Z,5.45
2018-04-08T17:23:58.697Z,4.15
2018-04-08T17:26:25.383Z,6.53
2018-04-08T17:28:52.050Z,5.57
2018-04-08T17:31:18.743Z,10.05
2018-04-08T17:33:45.437Z,7.60
2018-04-08T17:36:12.120Z,5.12
2018-04-08T17:38:38.839Z,7.72
2018-04-08T17:41:05.501Z,8.50
2018-04-08T17:43:32.229Z,8.13
2018-04-08T17:45:58.910Z,7.78
2018-04-08T17:48:25.590Z,7.00
2018-04-08T17:50:52.515Z,10.02
2018-04-08T17:53:19.190Z,8.68
2018-04-08T17:55:45.940Z,10.80
2018-04-08T17:58:12.689Z,8.30
2018-04-08T18:00:39.363Z,7.57
2018-04-08T18:03:06.124Z,6.12
2018-04-08T18:05:32.831Z,8.90
2018-04-08T18:07:59.556Z,6.78
2018-04-08T18:10:26.387Z,9.10
2018-04-08T18:12:53.202Z,7.43
2018-04-08T18:15:19.891Z,10.50
2018-04-08T18:17:46.583Z,8.35
2018-04-08T18:20:13.297Z,8.23
2018-04-08T18:22:39.974Z,7.25
2018-04-08T18:25:06.653Z,7.22
2018-04-08T18:27:33.364Z,7.30
2018-04-08T18:30:00.231Z,7.70
2018-04-08T18:32:26.939Z,8.63
2018-04-08T18:34:53.653Z,10.07
2018-04-08T18:37:20.328Z,8.93
2018-04-08T18:39:47.036Z,8.30
2018-04-08T18:42:13.756Z,6.68
2018-04-08T18:44:40.472Z,8.98
2018-04-08T18:47:07.156Z,8.30
2018-04-08T18:49:33.861Z,12.93
2018-04-08T18:52:00.582Z,8.73
2018-04-08T18:54:27.602Z,10.07
2018-04-08T18:56:55.052Z,9.13
2018-04-08T18:59:21.755Z,7.90
2018-04-08T19:01:48.485Z,10.27
2018-04-08T19:04:15.248Z,9.47
2018-04-08T19:06:41.919Z,8.47
2018-04-08T19:09:08.634Z,7.67
2018-04-08T19:11:35.390Z,10.93
2018-04-08T19:14:02.150Z,9.53
2018-04-08T19:16:28.878Z,9.30
2018-04-08T19:18:55.584Z,8.23
2018-04-08T19:21:22.305Z,9.63
2018-04-08T19:23:48.984Z,11.03
2018-04-08T19:26:15.806Z,10.00
2018-04-08T19:28:42.542Z,11.47
2018-04-08T19:31:09.242Z,11.00
2018-04-08T19:33:35.974Z,8.17
2018-04-08T19:36:02.696Z,10.43
2018-04-08T19:38:29.390Z,9.93
2018-04-08T19:40:56.076Z,8.80
2018-04-08T19:43:22.752Z,11.27
2018-04-08T19:45:49.464Z,10.67
2018-04-08T19:48:16.200Z,9.10
2018-04-08T19:50:42.926Z,8.30
2018-04-08T19:53:09.611Z,10.53
2018-04-08T19:55:36.347Z,9.27
2018-04-08T19:58:03.032Z,11.17
2018-04-08T20:00:29.766Z,12.10
2018-04-08T20:02:56.459Z,8.57
2018-04-08T20:05:23.172Z,12.57
2018-04-08T20:07:49.902Z,8.33
2018-04-08T20:10:16.581Z,8.53
2018-04-08T20:12:43.277Z,9.87
2018-04-08T20:15:10.605Z,12.47
2018-04-08T20:17:37.321Z,12.23
2018-04-08T20:20:04.004Z,13.83
2018-04-08T20:22:30.732Z,10.50
2018-04-08T20:24:57.397Z,14.77
2018-04-08T20:27:24.502Z,9.97
2018-04-08T20:29:51.206Z,11.20
2018-04-08T20:32:17.901Z,7.27
2018-04-08T20:34:44.625Z,6.33
2018-04-08T20:37:11.341Z,8.17
2018-04-08T20:39:38.034Z,14.23
2018-04-08T20:42:04.697Z,7.87
2018-04-08T20:44:31.364Z,8.67
2018-04-08T20:46:58.048Z,6.23
2018-04-08T20:49:24.797Z,7.33
2018-04-08T20:51:51.460Z,18.70
2018-04-08T20:54:18.196Z,7.57
2018-04-08T20:56:44.903Z,10.27
2018-04-08T20:59:11.596Z,12.43
2018-04-08T21:01:38.278Z,9.40
2018-04-08T21:04:04.994Z,11.03
2018-04-08T21:06:31.751Z,8.27
2018-04-08T21:08:58.475Z,8.07
2018-04-08T21:11:25.142Z,8.07
2018-04-08T21:13:51.844Z,8.13
2018-04-08T21:16:18.548Z,7.27
2018-04-08T21:18:45.232Z,9.13
2018-04-08T21:21:11.974Z,9.47
2018-04-08T21:23:38.714Z,7.90
2018-04-08T21:26:05.421Z,7.60
2018-04-08T21:28:32.149Z,6.87
2018-04-08T21:30:58.832Z,7.83
2018-04-08T21:33:25.524Z,8.00
2018-04-08T21:35:52.343Z,10.37
2018-04-08T21:38:19.004Z,7.77
2018-04-08T21:40:45.763Z,8.60
2018-04-08T21:43:12.535Z,6.70
2018-04-08T21:45:39.211Z,8.17
2018-04-08T21:48:05.933Z,7.53
2018-04-08T21:50:32.661Z,8.17
2018-04-08T21:52:59.352Z,8.40
2018-04-08T21:55:26.101Z,8.37
2018-04-08T21:57:52.769Z,9.37
2018-04-08T22:00:19.515Z,8.87
2018-04-08T22:02:46.197Z,7.57
2018-04-08T22:05:12.906Z,8.17
2018-04-08T22:07:39.645Z,8.47
2018-04-08T22:10:06.375Z,8.67
2018-04-08T22:12:33.034Z,9.60
2018-04-08T22:14:59.746Z,7.77
2018-04-08T22:17:26.439Z,9.13
2018-04-08T22:19:53.151Z,8.87
2018-04-08T22:22:19.849Z,8.57
2018-04-08T22:24:46.559Z,9.47
2018-04-08T22:27:13.566Z,9.47
2018-04-08T22:29:41.870Z,8.83
2018-04-08T22:32:09.116Z,8.67
2018-04-08T22:34:35.959Z,9.87
2018-04-08T22:39:36.765Z,11.23
2018-04-08T22:42:03.541Z,10.00
2018-04-08T22:44:30.209Z,10.53
2018-04-08T22:46:56.913Z,9.47
2018-04-08T22:49:23.638Z,10.97
2018-04-08T22:51:50.351Z,11.27
2018-04-08T22:54:17.075Z,8.63
2018-04-08T22:56:43.760Z,9.73
2018-04-08T22:59:10.472Z,10.53
2018-04-08T23:01:37.838Z,10.97
2018-04-08T23:04:04.527Z,11.23
2018-04-08T23:06:31.260Z,9.43
2018-04-08T23:08:57.965Z,12.13
2018-04-08T23:11:24.688Z,12.13
2018-04-08T23:13:51.394Z,13.17
2018-04-08T23:16:18.145Z,10.47
2018-04-08T23:18:44.841Z,11.90
2018-04-08T23:21:11.526Z,10.23
2018-04-08T23:23:38.846Z,13.57
2018-04-08T23:26:05.534Z,12.07
2018-04-08T23:28:32.272Z,12.30
2018-04-08T23:30:58.948Z,12.50
2018-04-08T23:33:25.674Z,14.13
2018-04-08T23:35:52.369Z,13.63
2018-04-08T23:38:19.110Z,11.87
2018-04-08T23:40:45.791Z,13.77
2018-04-08T23:43:12.532Z,13.83
2018-04-08T23:45:39.273Z,13.10
2018-04-08T23:48:05.995Z,13.73
2018-04-08T23:50:32.710Z,14.17
2018-04-08T23:52:59.442Z,12.37
2018-04-08T23:55:26.158Z,12.17
2018-04-08T23:57:52.858Z,14.27
